Hovedside
METAR-TAF:

METAR-TAF

Lufthavner :

Berlevåg lufthavn

Berlevåg, Norge

breddegrad: 70-52N, lengdegrad: 029-02E, høyde over havet: 1 m

Gjeldene værobservasjon

Denne rapporten ble laget for 18 timer og 52 minutter siden, klokken 20:50 UTC
Vind 19 kt fra Vest
Temperatur 4°C
Luftfuktighet 81%
Trykk 1031 hPa
Sikt 10 km eller mer
Brutte skyer i en høyde av 1800 ft

METAR: ENBV 172050Z 27019KT 9999 BKN018 04/01 Q1031

Tid: 17:42 (15:42 UTC)

Varsel

Denne rapporten ble laget for 28 timer og 42 minutter siden, klokken 11:00 UTC
Varsel gyldig fra 17. klokken 12 UTC til 17. klokken 21 UTC
Vind 20 kt fra Vest
Sikt 10 km eller mer
Få skyer i en høyde av 2000 ft

TAF: ENBV 171100Z 1712/1721 26020KT 9999 FEW020

Værobservasjoner og værvarsel for over 4000 flyplasser (METAR- og TAF-rapporter).

Tilgjengelige stasjoner er representert av de røde og gule prikkene på kartet.

Hold musepekeren over prikken for å se navnet på stasjonen.

Klikk så for å se værobservasjoner og -varsler.

For å forandre kartet kan du klikke på den grønne knappen med svart kryss for å zoome inn, på den grønne knappen med strek for å zoome ut, eller på de grønne pilene for å se tilstøtende kart.


METAR-TAF: